sensor_id;sensor_type;location;lat;lon;timestamp;P1;durP1;ratioP1;P2;durP2;ratioP2
70757;SDS011;59316;52.964;7.102;2023-04-03T00:03:10;2.65;;;0.95;;
70757;SDS011;59316;52.964;7.102;2023-04-03T00:08:32;2.80;;;1.10;;
70757;SDS011;59316;52.964;7.102;2023-04-03T00:14:43;2.47;;;0.93;;
70757;SDS011;59316;52.964;7.102;2023-04-03T00:20:18;1.50;;;1.08;;
70757;SDS011;59316;52.964;7.102;2023-04-03T00:25:40;3.42;;;1.00;;
70757;SDS011;59316;52.964;7.102;2023-04-03T00:31:02;1.85;;;1.10;;
70757;SDS011;59316;52.964;7.102;2023-04-03T00:36:26;2.72;;;1.13;;
70757;SDS011;59316;52.964;7.102;2023-04-03T00:41:48;2.08;;;1.02;;
70757;SDS011;59316;52.964;7.102;2023-04-03T00:47:13;2.40;;;1.20;;
70757;SDS011;59316;52.964;7.102;2023-04-03T00:52:37;1.38;;;0.98;;
70757;SDS011;59316;52.964;7.102;2023-04-03T00:58:00;4.47;;;1.23;;
70757;SDS011;59316;52.964;7.102;2023-04-03T01:03:23;2.35;;;1.17;;
70757;SDS011;59316;52.964;7.102;2023-04-03T01:08:47;4.18;;;1.02;;
70757;SDS011;59316;52.964;7.102;2023-04-03T01:14:11;5.10;;;1.35;;
70757;SDS011;59316;52.964;7.102;2023-04-03T01:19:32;3.53;;;1.30;;
70757;SDS011;59316;52.964;7.102;2023-04-03T01:24:57;2.83;;;1.35;;
70757;SDS011;59316;52.964;7.102;2023-04-03T01:30:20;4.22;;;1.40;;
70757;SDS011;59316;52.964;7.102;2023-04-03T01:35:53;4.78;;;1.45;;
70757;SDS011;59316;52.964;7.102;2023-04-03T01:41:18;4.15;;;1.33;;
70757;SDS011;59316;52.964;7.102;2023-04-03T01:46:45;4.18;;;1.40;;
70757;SDS011;59316;52.964;7.102;2023-04-03T01:52:07;9.40;;;1.50;;
70757;SDS011;59316;52.964;7.102;2023-04-03T01:57:44;7.90;;;2.00;;
70757;SDS011;59316;52.964;7.102;2023-04-03T02:03:05;8.27;;;2.20;;
70757;SDS011;59316;52.964;7.102;2023-04-03T02:08:27;7.88;;;1.58;;
70757;SDS011;59316;52.964;7.102;2023-04-03T02:13:49;9.75;;;2.05;;
70757;SDS011;59316;52.964;7.102;2023-04-03T02:19:11;3.47;;;1.40;;
70757;SDS011;59316;52.964;7.102;2023-04-03T02:24:32;7.30;;;1.60;;
70757;SDS011;59316;52.964;7.102;2023-04-03T02:29:56;6.25;;;1.67;;
70757;SDS011;59316;52.964;7.102;2023-04-03T02:35:21;1.83;;;1.40;;
70757;SDS011;59316;52.964;7.102;2023-04-03T02:40:42;5.03;;;1.98;;
70757;SDS011;59316;52.964;7.102;2023-04-03T02:46:06;6.40;;;1.97;;
70757;SDS011;59316;52.964;7.102;2023-04-03T02:51:28;3.65;;;1.50;;
70757;SDS011;59316;52.964;7.102;2023-04-03T02:56:51;8.30;;;1.92;;
70757;SDS011;59316;52.964;7.102;2023-04-03T03:02:12;5.13;;;1.80;;
70757;SDS011;59316;52.964;7.102;2023-04-03T03:07:34;5.22;;;2.00;;
70757;SDS011;59316;52.964;7.102;2023-04-03T03:12:55;7.93;;;2.50;;
70757;SDS011;59316;52.964;7.102;2023-04-03T03:18:17;4.60;;;2.35;;
70757;SDS011;59316;52.964;7.102;2023-04-03T03:23:48;4.55;;;2.10;;
70757;SDS011;59316;52.964;7.102;2023-04-03T03:29:12;4.57;;;2.30;;
70757;SDS011;59316;52.964;7.102;2023-04-03T03:34:39;6.75;;;2.58;;
70757;SDS011;59316;52.964;7.102;2023-04-03T03:45:30;8.52;;;2.40;;
70757;SDS011;59316;52.964;7.102;2023-04-03T03:51:20;5.85;;;2.50;;
70757;SDS011;59316;52.964;7.102;2023-04-03T03:56:42;7.28;;;2.33;;
70757;SDS011;59316;52.964;7.102;2023-04-03T04:02:27;6.47;;;2.63;;
70757;SDS011;59316;52.964;7.102;2023-04-03T04:13:12;9.85;;;2.75;;
70757;SDS011;59316;52.964;7.102;2023-04-03T04:18:34;6.97;;;2.58;;
70757;SDS011;59316;52.964;7.102;2023-04-03T04:24:05;5.40;;;2.80;;
70757;SDS011;59316;52.964;7.102;2023-04-03T04:29:35;6.68;;;2.47;;
70757;SDS011;59316;52.964;7.102;2023-04-03T04:35:00;8.32;;;2.72;;
70757;SDS011;59316;52.964;7.102;2023-04-03T04:40:25;10.20;;;4.20;;
70757;SDS011;59316;52.964;7.102;2023-04-03T04:45:59;10.73;;;3.30;;
70757;SDS011;59316;52.964;7.102;2023-04-03T04:51:58;8.90;;;3.53;;
70757;SDS011;59316;52.964;7.102;2023-04-03T04:57:51;8.32;;;3.22;;
70757;SDS011;59316;52.964;7.102;2023-04-03T05:03:17;11.82;;;4.22;;
70757;SDS011;59316;52.964;7.102;2023-04-03T05:08:40;9.55;;;3.58;;
70757;SDS011;59316;52.964;7.102;2023-04-03T05:14:10;9.98;;;4.90;;
70757;SDS011;59316;52.964;7.102;2023-04-03T05:19:38;8.50;;;4.13;;
70757;SDS011;59316;52.964;7.102;2023-04-03T05:25:05;11.68;;;3.83;;
70757;SDS011;59316;52.964;7.102;2023-04-03T05:30:27;8.48;;;4.13;;
70757;SDS011;59316;52.964;7.102;2023-04-03T05:35:49;12.90;;;5.05;;
70757;SDS011;59316;52.964;7.102;2023-04-03T05:41:16;7.63;;;4.35;;
70757;SDS011;59316;52.964;7.102;2023-04-03T05:46:39;13.25;;;4.72;;
70757;SDS011;59316;52.964;7.102;2023-04-03T05:52:02;10.23;;;4.77;;
70757;SDS011;59316;52.964;7.102;2023-04-03T05:57:25;11.38;;;4.65;;
70757;SDS011;59316;52.964;7.102;2023-04-03T06:02:47;11.55;;;4.78;;
70757;SDS011;59316;52.964;7.102;2023-04-03T06:08:13;13.02;;;5.03;;
70757;SDS011;59316;52.964;7.102;2023-04-03T06:13:34;9.15;;;4.70;;
70757;SDS011;59316;52.964;7.102;2023-04-03T06:18:56;12.18;;;5.07;;
70757;SDS011;59316;52.964;7.102;2023-04-03T06:24:18;11.30;;;4.30;;
70757;SDS011;59316;52.964;7.102;2023-04-03T06:29:40;9.30;;;4.70;;
70757;SDS011;59316;52.964;7.102;2023-04-03T06:35:01;6.25;;;3.55;;
70757;SDS011;59316;52.964;7.102;2023-04-03T06:40:23;9.23;;;3.75;;
70757;SDS011;59316;52.964;7.102;2023-04-03T06:45:46;11.18;;;3.83;;
70757;SDS011;59316;52.964;7.102;2023-04-03T06:51:12;7.30;;;3.17;;
70757;SDS011;59316;52.964;7.102;2023-04-03T06:56:40;10.82;;;3.03;;
70757;SDS011;59316;52.964;7.102;2023-04-03T07:02:02;8.13;;;2.65;;
70757;SDS011;59316;52.964;7.102;2023-04-03T07:07:24;5.22;;;2.15;;
70757;SDS011;59316;52.964;7.102;2023-04-03T07:12:45;6.18;;;2.00;;
70757;SDS011;59316;52.964;7.102;2023-04-03T07:18:06;4.32;;;1.80;;
70757;SDS011;59316;52.964;7.102;2023-04-03T07:23:28;6.63;;;1.60;;
70757;SDS011;59316;52.964;7.102;2023-04-03T07:28:49;4.00;;;1.60;;
70757;SDS011;59316;52.964;7.102;2023-04-03T07:34:11;5.22;;;1.33;;
70757;SDS011;59316;52.964;7.102;2023-04-03T07:39:32;7.85;;;1.58;;
70757;SDS011;59316;52.964;7.102;2023-04-03T07:44:54;3.75;;;1.58;;
70757;SDS011;59316;52.964;7.102;2023-04-03T07:50:15;5.53;;;1.50;;
70757;SDS011;59316;52.964;7.102;2023-04-03T07:55:37;6.53;;;1.50;;
70757;SDS011;59316;52.964;7.102;2023-04-03T08:00:59;4.40;;;1.38;;
70757;SDS011;59316;52.964;7.102;2023-04-03T08:06:21;3.80;;;1.50;;
70757;SDS011;59316;52.964;7.102;2023-04-03T08:12:01;5.85;;;1.75;;
70757;SDS011;59316;52.964;7.102;2023-04-03T08:17:22;4.72;;;1.65;;
70757;SDS011;59316;52.964;7.102;2023-04-03T08:22:44;4.88;;;1.30;;
70757;SDS011;59316;52.964;7.102;2023-04-03T08:28:06;6.53;;;1.70;;
70757;SDS011;59316;52.964;7.102;2023-04-03T08:33:29;6.10;;;1.30;;
70757;SDS011;59316;52.964;7.102;2023-04-03T08:38:50;5.10;;;1.60;;
70757;SDS011;59316;52.964;7.102;2023-04-03T08:50:00;4.47;;;1.60;;
70757;SDS011;59316;52.964;7.102;2023-04-03T08:55:33;2.83;;;1.20;;
70757;SDS011;59316;52.964;7.102;2023-04-03T09:01:14;2.00;;;1.00;;
70757;SDS011;59316;52.964;7.102;2023-04-03T09:06:45;3.22;;;1.17;;
70757;SDS011;59316;52.964;7.102;2023-04-03T09:17:46;1.83;;;1.02;;
70757;SDS011;59316;52.964;7.102;2023-04-03T09:29:19;2.25;;;1.15;;
70757;SDS011;59316;52.964;7.102;2023-04-03T09:34:43;1.33;;;0.80;;
70757;SDS011;59316;52.964;7.102;2023-04-03T09:40:05;3.90;;;1.20;;
70757;SDS011;59316;52.964;7.102;2023-04-03T09:51:54;1.55;;;0.90;;
70757;SDS011;59316;52.964;7.102;2023-04-03T09:57:16;2.60;;;0.90;;
70757;SDS011;59316;52.964;7.102;2023-04-03T10:02:38;4.80;;;1.13;;
70757;SDS011;59316;52.964;7.102;2023-04-03T10:13:34;2.05;;;0.82;;
70757;SDS011;59316;52.964;7.102;2023-04-03T10:19:14;2.53;;;0.80;;
70757;SDS011;59316;52.964;7.102;2023-04-03T10:36:48;2.03;;;1.02;;
70757;SDS011;59316;52.964;7.102;2023-04-03T10:53:56;2.80;;;0.90;;
70757;SDS011;59316;52.964;7.102;2023-04-03T10:59:38;1.23;;;0.75;;
70757;SDS011;59316;52.964;7.102;2023-04-03T11:05:17;1.65;;;0.90;;
70757;SDS011;59316;52.964;7.102;2023-04-03T11:10:48;2.42;;;0.80;;
70757;SDS011;59316;52.964;7.102;2023-04-03T11:16:14;1.52;;;0.88;;
70757;SDS011;59316;52.964;7.102;2023-04-03T11:22:13;1.85;;;0.80;;
70757;SDS011;59316;52.964;7.102;2023-04-03T11:27:45;1.80;;;0.90;;
70757;SDS011;59316;52.964;7.102;2023-04-03T11:33:32;3.15;;;0.95;;
70757;SDS011;59316;52.964;7.102;2023-04-03T11:44:42;20.38;;;1.08;;
70757;SDS011;59316;52.964;7.102;2023-04-03T11:50:04;2.80;;;1.00;;
70757;SDS011;59316;52.964;7.102;2023-04-03T12:00:51;4.90;;;1.85;;
70757;SDS011;59316;52.964;7.102;2023-04-03T12:12:20;2.05;;;0.88;;
70757;SDS011;59316;52.964;7.102;2023-04-03T12:24:23;2.65;;;0.95;;
70757;SDS011;59316;52.964;7.102;2023-04-03T12:30:00;2.50;;;0.95;;
70757;SDS011;59316;52.964;7.102;2023-04-03T12:41:37;1.90;;;0.90;;
70757;SDS011;59316;52.964;7.102;2023-04-03T12:47:21;2.13;;;0.80;;
70757;SDS011;59316;52.964;7.102;2023-04-03T12:52:51;3.72;;;1.13;;
70757;SDS011;59316;52.964;7.102;2023-04-03T12:58:26;1.90;;;1.15;;
70757;SDS011;59316;52.964;7.102;2023-04-03T13:03:50;3.05;;;1.20;;
70757;SDS011;59316;52.964;7.102;2023-04-03T13:14:55;2.05;;;1.00;;
70757;SDS011;59316;52.964;7.102;2023-04-03T13:25:50;3.17;;;1.00;;
70757;SDS011;59316;52.964;7.102;2023-04-03T13:36:34;2.40;;;0.90;;
70757;SDS011;59316;52.964;7.102;2023-04-03T13:42:00;2.15;;;0.85;;
70757;SDS011;59316;52.964;7.102;2023-04-03T13:54:00;2.88;;;1.00;;
70757;SDS011;59316;52.964;7.102;2023-04-03T13:59:31;2.33;;;1.05;;
70757;SDS011;59316;52.964;7.102;2023-04-03T14:04:57;3.67;;;0.88;;
70757;SDS011;59316;52.964;7.102;2023-04-03T14:10:21;2.10;;;1.00;;
70757;SDS011;59316;52.964;7.102;2023-04-03T14:15:43;2.38;;;1.10;;
70757;SDS011;59316;52.964;7.102;2023-04-03T14:21:06;1.20;;;0.90;;
70757;SDS011;59316;52.964;7.102;2023-04-03T14:26:27;3.70;;;1.23;;
70757;SDS011;59316;52.964;7.102;2023-04-03T14:31:50;3.13;;;1.20;;
70757;SDS011;59316;52.964;7.102;2023-04-03T14:37:31;2.60;;;1.08;;
70757;SDS011;59316;52.964;7.102;2023-04-03T14:42:53;2.33;;;1.05;;
70757;SDS011;59316;52.964;7.102;2023-04-03T14:48:19;2.30;;;1.13;;
70757;SDS011;59316;52.964;7.102;2023-04-03T14:53:47;2.42;;;1.00;;
70757;SDS011;59316;52.964;7.102;2023-04-03T14:59:09;1.30;;;0.90;;
70757;SDS011;59316;52.964;7.102;2023-04-03T15:04:32;2.25;;;0.90;;
70757;SDS011;59316;52.964;7.102;2023-04-03T15:09:54;3.40;;;1.20;;
70757;SDS011;59316;52.964;7.102;2023-04-03T15:15:17;1.88;;;0.90;;
70757;SDS011;59316;52.964;7.102;2023-04-03T15:20:40;1.95;;;1.05;;
70757;SDS011;59316;52.964;7.102;2023-04-03T15:26:02;2.22;;;1.02;;
70757;SDS011;59316;52.964;7.102;2023-04-03T15:31:24;2.25;;;1.00;;
70757;SDS011;59316;52.964;7.102;2023-04-03T15:36:45;4.05;;;1.08;;
70757;SDS011;59316;52.964;7.102;2023-04-03T15:42:07;1.88;;;1.00;;
70757;SDS011;59316;52.964;7.102;2023-04-03T15:47:29;1.80;;;0.75;;
70757;SDS011;59316;52.964;7.102;2023-04-03T15:52:51;1.70;;;0.90;;
70757;SDS011;59316;52.964;7.102;2023-04-03T15:58:13;1.50;;;1.00;;
70757;SDS011;59316;52.964;7.102;2023-04-03T16:03:34;2.53;;;1.20;;
70757;SDS011;59316;52.964;7.102;2023-04-03T16:08:55;3.72;;;1.15;;
70757;SDS011;59316;52.964;7.102;2023-04-03T16:14:17;4.75;;;1.60;;
70757;SDS011;59316;52.964;7.102;2023-04-03T16:19:38;2.65;;;1.10;;
70757;SDS011;59316;52.964;7.102;2023-04-03T16:25:00;3.53;;;1.15;;
70757;SDS011;59316;52.964;7.102;2023-04-03T16:30:22;3.55;;;0.90;;
70757;SDS011;59316;52.964;7.102;2023-04-03T16:35:44;2.72;;;1.02;;
70757;SDS011;59316;52.964;7.102;2023-04-03T16:41:05;1.50;;;0.90;;
70757;SDS011;59316;52.964;7.102;2023-04-03T16:46:27;2.50;;;1.27;;
70757;SDS011;59316;52.964;7.102;2023-04-03T16:51:48;3.80;;;1.10;;
70757;SDS011;59316;52.964;7.102;2023-04-03T16:57:10;3.55;;;1.23;;
70757;SDS011;59316;52.964;7.102;2023-04-03T17:02:32;3.75;;;1.30;;
70757;SDS011;59316;52.964;7.102;2023-04-03T17:07:53;5.55;;;1.20;;
70757;SDS011;59316;52.964;7.102;2023-04-03T17:13:15;3.67;;;1.27;;
70757;SDS011;59316;52.964;7.102;2023-04-03T17:18:36;2.65;;;1.20;;
70757;SDS011;59316;52.964;7.102;2023-04-03T17:23:59;1.95;;;1.10;;
70757;SDS011;59316;52.964;7.102;2023-04-03T17:29:31;1.50;;;1.10;;
70757;SDS011;59316;52.964;7.102;2023-04-03T17:35:05;3.63;;;1.40;;
70757;SDS011;59316;52.964;7.102;2023-04-03T17:40:34;3.83;;;1.63;;
70757;SDS011;59316;52.964;7.102;2023-04-03T17:46:09;1.95;;;1.55;;
70757;SDS011;59316;52.964;7.102;2023-04-03T17:52:02;3.22;;;1.40;;
70757;SDS011;59316;52.964;7.102;2023-04-03T17:57:38;2.42;;;1.30;;
70757;SDS011;59316;52.964;7.102;2023-04-03T18:03:12;3.95;;;1.40;;
70757;SDS011;59316;52.964;7.102;2023-04-03T18:08:37;3.00;;;1.23;;
70757;SDS011;59316;52.964;7.102;2023-04-03T18:14:11;3.65;;;1.40;;
70757;SDS011;59316;52.964;7.102;2023-04-03T18:19:53;2.30;;;1.45;;
70757;SDS011;59316;52.964;7.102;2023-04-03T18:25:30;3.15;;;1.40;;
70757;SDS011;59316;52.964;7.102;2023-04-03T18:30:54;3.90;;;2.05;;
70757;SDS011;59316;52.964;7.102;2023-04-03T18:36:27;3.90;;;1.40;;
70757;SDS011;59316;52.964;7.102;2023-04-03T18:42:06;2.67;;;1.42;;
70757;SDS011;59316;52.964;7.102;2023-04-03T18:47:37;4.13;;;1.33;;
70757;SDS011;59316;52.964;7.102;2023-04-03T18:53:05;1.50;;;1.20;;
70757;SDS011;59316;52.964;7.102;2023-04-03T18:58:35;2.63;;;1.45;;
70757;SDS011;59316;52.964;7.102;2023-04-03T19:10:13;3.13;;;1.10;;
70757;SDS011;59316;52.964;7.102;2023-04-03T19:15:41;4.72;;;1.17;;
70757;SDS011;59316;52.964;7.102;2023-04-03T19:21:38;4.88;;;1.30;;
70757;SDS011;59316;52.964;7.102;2023-04-03T19:32:49;5.13;;;1.95;;
70757;SDS011;59316;52.964;7.102;2023-04-03T19:38:10;4.40;;;2.45;;
70757;SDS011;59316;52.964;7.102;2023-04-03T19:43:36;3.90;;;2.28;;
70757;SDS011;59316;52.964;7.102;2023-04-03T19:49:02;3.90;;;1.65;;
70757;SDS011;59316;52.964;7.102;2023-04-03T19:54:24;4.72;;;2.05;;
70757;SDS011;59316;52.964;7.102;2023-04-03T19:59:45;5.22;;;2.20;;
70757;SDS011;59316;52.964;7.102;2023-04-03T20:05:07;3.83;;;2.00;;
70757;SDS011;59316;52.964;7.102;2023-04-03T20:10:32;3.88;;;2.17;;
70757;SDS011;59316;52.964;7.102;2023-04-03T20:15:56;6.38;;;2.22;;
70757;SDS011;59316;52.964;7.102;2023-04-03T20:21:29;4.43;;;2.38;;
70757;SDS011;59316;52.964;7.102;2023-04-03T20:26:53;8.20;;;2.42;;
70757;SDS011;59316;52.964;7.102;2023-04-03T20:32:17;3.33;;;2.00;;
70757;SDS011;59316;52.964;7.102;2023-04-03T20:37:48;4.40;;;2.10;;
70757;SDS011;59316;52.964;7.102;2023-04-03T20:43:10;5.72;;;2.40;;
70757;SDS011;59316;52.964;7.102;2023-04-03T20:48:32;7.03;;;3.10;;
70757;SDS011;59316;52.964;7.102;2023-04-03T20:53:53;5.25;;;2.55;;
70757;SDS011;59316;52.964;7.102;2023-04-03T20:59:15;6.82;;;3.00;;
70757;SDS011;59316;52.964;7.102;2023-04-03T21:04:39;8.35;;;3.03;;
70757;SDS011;59316;52.964;7.102;2023-04-03T21:21:58;6.05;;;2.80;;
70757;SDS011;59316;52.964;7.102;2023-04-03T21:27:22;6.35;;;2.83;;
70757;SDS011;59316;52.964;7.102;2023-04-03T21:32:43;6.55;;;2.85;;
70757;SDS011;59316;52.964;7.102;2023-04-03T21:38:04;10.05;;;3.60;;
70757;SDS011;59316;52.964;7.102;2023-04-03T21:43:25;5.78;;;3.03;;
70757;SDS011;59316;52.964;7.102;2023-04-03T21:48:47;8.13;;;3.88;;
70757;SDS011;59316;52.964;7.102;2023-04-03T21:54:08;6.70;;;3.28;;
70757;SDS011;59316;52.964;7.102;2023-04-03T21:59:29;9.50;;;3.38;;
70757;SDS011;59316;52.964;7.102;2023-04-03T22:04:51;11.98;;;3.78;;
70757;SDS011;59316;52.964;7.102;2023-04-03T22:10:13;7.57;;;3.30;;
70757;SDS011;59316;52.964;7.102;2023-04-03T22:15:35;8.98;;;3.75;;
70757;SDS011;59316;52.964;7.102;2023-04-03T22:20:57;9.02;;;4.28;;
70757;SDS011;59316;52.964;7.102;2023-04-03T22:26:18;6.15;;;3.45;;
70757;SDS011;59316;52.964;7.102;2023-04-03T22:31:40;7.38;;;3.17;;
70757;SDS011;59316;52.964;7.102;2023-04-03T22:37:01;9.45;;;3.20;;
70757;SDS011;59316;52.964;7.102;2023-04-03T22:42:23;11.50;;;3.92;;
70757;SDS011;59316;52.964;7.102;2023-04-03T22:47:44;10.10;;;3.72;;
70757;SDS011;59316;52.964;7.102;2023-04-03T22:53:06;7.03;;;3.88;;
70757;SDS011;59316;52.964;7.102;2023-04-03T22:58:28;8.95;;;3.65;;
70757;SDS011;59316;52.964;7.102;2023-04-03T23:03:50;8.32;;;4.00;;
70757;SDS011;59316;52.964;7.102;2023-04-03T23:09:11;10.85;;;3.80;;
70757;SDS011;59316;52.964;7.102;2023-04-03T23:14:33;11.93;;;4.00;;
70757;SDS011;59316;52.964;7.102;2023-04-03T23:19:54;8.63;;;3.67;;
70757;SDS011;59316;52.964;7.102;2023-04-03T23:25:16;8.02;;;3.60;;
70757;SDS011;59316;52.964;7.102;2023-04-03T23:30:37;10.20;;;3.53;;
70757;SDS011;59316;52.964;7.102;2023-04-03T23:35:59;8.90;;;3.72;;
70757;SDS011;59316;52.964;7.102;2023-04-03T23:41:26;8.68;;;4.10;;
70757;SDS011;59316;52.964;7.102;2023-04-03T23:46:47;10.40;;;3.95;;
70757;SDS011;59316;52.964;7.102;2023-04-03T23:52:08;7.72;;;3.90;;
70757;SDS011;59316;52.964;7.102;2023-04-03T23:57:30;8.77;;;3.90;;
